Time;durP1;ratioP1;P1;durP2;ratioP2;P2;SDS_P1;SDS_P2;PMS_P1;PMS_P2;Temp;Humidity;BMP_temperature;BMP_pressure;BME280_temperature;BME280_humidity;BME280_pressure;Samples;Min_cycle;Max_cycle;Signal;HPM_P1;HPM_P2
2023/03/31 00:00:11;;;;;;;18.73;5.40;;;;;;;8.31;100.00;99260.59;7395378;19;20407;-43
2023/03/31 00:02:41;;;;;;;32.83;6.27;;;;;;;8.34;100.00;99252.97;7392464;19;20439;-41
2023/03/31 00:05:16;;;;;;;19.27;5.60;;;;;;;8.34;100.00;99234.09;7394470;19;20416;-39
2023/03/31 00:07:47;;;;;;;38.17;6.83;;;;;;;8.36;100.00;99217.06;7395226;19;20458;-41
2023/03/31 00:10:18;;;;;;;24.53;6.87;;;;;;;8.37;100.00;99209.34;7395683;19;20411;-41
2023/03/31 00:12:47;;;;;;;33.97;7.70;;;;;;;8.37;100.00;99208.50;7394685;19;20987;-43
2023/03/31 00:15:17;;;;;;;44.90;9.60;;;;;;;8.40;100.00;99194.88;7397325;19;20395;-40
2023/03/31 00:17:46;;;;;;;29.87;7.30;;;;;;;8.39;100.00;99186.28;7393554;19;20439;-39
2023/03/31 00:20:19;;;;;;;55.80;10.30;;;;;;;8.41;100.00;99166.59;7395239;19;20416;-40
2023/03/31 00:22:49;;;;;;;30.23;7.23;;;;;;;8.41;100.00;99165.75;7393212;19;20459;-40
2023/03/31 00:25:18;;;;;;;25.77;6.03;;;;;;;8.40;100.00;99141.75;7394497;19;20443;-42
2023/03/31 00:27:49;;;;;;;33.13;7.60;;;;;;;8.39;100.00;99137.44;7392655;19;20435;-43
2023/03/31 00:30:19;;;;;;;35.50;7.87;;;;;;;8.37;100.00;99134.81;7395238;19;20424;-41
2023/03/31 00:32:48;;;;;;;25.03;6.43;;;;;;;8.36;100.00;99130.53;7393733;19;20794;-40
2023/03/31 00:35:21;;;;;;;48.70;10.70;;;;;;;8.37;100.00;99121.13;7394125;19;20403;-41
2023/03/31 00:37:52;;;;;;;24.83;7.53;;;;;;;8.35;100.00;99135.63;7393489;19;20455;-39
2023/03/31 00:40:22;;;;;;;24.10;6.00;;;;;;;8.32;100.00;99115.84;7395698;19;20431;-42
2023/03/31 00:42:52;;;;;;;19.40;5.30;;;;;;;8.34;100.00;99124.47;7391840;19;20451;-41
2023/03/31 00:45:30;;;;;;;19.80;5.90;;;;;;;8.36;100.00;99116.81;7395917;19;20411;-39
2023/03/31 00:48:08;;;;;;;21.97;5.00;;;;;;;8.33;100.00;99116.72;7393097;19;20491;-40
2023/03/31 00:50:44;;;;;;;23.97;5.40;;;;;;;8.33;100.00;99111.59;7391570;19;20422;-40
2023/03/31 00:53:17;;;;;;;25.93;5.03;;;;;;;8.33;100.00;99111.59;7394417;19;20427;-41
2023/03/31 00:55:48;;;;;;;40.27;7.57;;;;;;;8.33;100.00;99109.03;7394672;19;20411;-39
2023/03/31 00:58:19;;;;;;;35.10;6.10;;;;;;;8.31;100.00;99108.13;7387838;19;20482;-41
2023/03/31 01:00:51;;;;;;;33.03;4.33;;;;;;;8.30;100.00;99114.94;7395126;19;20482;-41
2023/03/31 01:03:22;;;;;;;27.03;5.50;;;;;;;8.32;100.00;99109.84;7385860;19;20454;-47
2023/03/31 01:05:57;;;;;;;22.47;5.80;;;;;;;8.30;100.00;99114.94;7393773;19;20423;-38
2023/03/31 01:08:29;;;;;;;15.43;3.60;;;;;;;8.29;100.00;99107.19;7388551;19;20478;-40
2023/03/31 01:11:02;;;;;;;18.40;4.60;;;;;;;8.30;100.00;99101.25;7395034;19;20942;-40
2023/03/31 01:13:33;;;;;;;31.20;4.17;;;;;;;8.28;100.00;99095.19;7395713;19;20439;-43
2023/03/31 01:16:02;;;;;;;26.00;4.73;;;;;;;8.29;100.00;99099.50;7393263;19;20422;-39
2023/03/31 01:18:33;;;;;;;27.30;5.20;;;;;;;8.28;100.00;99097.75;7393670;19;20809;-40
2023/03/31 01:21:29;;;;;;;27.40;6.13;;;;;;;8.28;100.00;99097.75;7392774;19;20403;-41
2023/03/31 01:24:24;;;;;;;24.30;4.33;;;;;;;8.23;100.00;99085.69;7394705;19;20451;-41
2023/03/31 01:27:05;;;;;;;27.47;4.50;;;;;;;8.23;100.00;99088.25;7389859;19;20983;-41
2023/03/31 01:29:56;;;;;;;20.73;3.70;;;;;;;8.23;100.00;99083.13;7394163;19;20812;-38
2023/03/31 01:32:57;;;;;;;28.10;4.57;;;;;;;8.24;100.00;99087.41;7392253;19;20439;-41
2023/03/31 01:35:49;;;;;;;27.60;7.53;;;;;;;8.26;100.00;99079.75;7391985;19;20396;-39
2023/03/31 01:38:50;;;;;;;25.13;4.40;;;;;;;8.24;100.00;99076.25;7391404;19;21075;-40
2023/03/31 01:41:34;;;;;;;26.23;5.57;;;;;;;8.23;100.00;99077.97;7390880;19;20406;-39
2023/03/31 01:44:09;;;;;;;33.70;6.07;;;;;;;8.22;100.00;99065.94;7392687;19;20395;-42
2023/03/31 01:46:42;;;;;;;29.33;7.00;;;;;;;8.22;100.00;99058.22;7390432;19;20904;-41
2023/03/31 01:49:16;;;;;;;15.03;4.90;;;;;;;8.24;100.00;99056.59;7393468;19;20435;-41
2023/03/31 01:51:52;;;;;;;12.10;3.50;;;;;;;8.23;100.00;99060.00;7381926;19;20453;-38
2023/03/31 01:54:26;;;;;;;23.00;4.20;;;;;;;8.24;100.00;99061.72;7392321;19;20410;-39
2023/03/31 01:57:00;;;;;;;19.07;4.27;;;;;;;8.24;100.00;99058.28;7389934;19;20443;-43
2023/03/31 01:59:33;;;;;;;20.77;4.60;;;;;;;8.28;100.00;99061.78;7393063;19;20439;-40
2023/03/31 02:02:05;;;;;;;24.37;4.37;;;;;;;8.29;100.00;99053.22;7390627;19;20455;-41
2023/03/31 02:04:38;;;;;;;25.43;5.33;;;;;;;8.26;100.00;99054.06;7392118;19;20409;-40
2023/03/31 02:07:12;;;;;;;24.00;5.17;;;;;;;8.27;100.00;99049.78;7390532;19;20427;-39
2023/03/31 02:09:44;;;;;;;20.67;4.00;;;;;;;8.27;100.00;99044.63;7392539;19;20439;-40
2023/03/31 02:12:18;;;;;;;32.50;4.27;;;;;;;8.27;100.00;99049.78;7390954;19;20446;-40
2023/03/31 02:14:50;;;;;;;24.30;4.40;;;;;;;8.26;100.00;99038.66;7398626;19;20403;-41
2023/03/31 02:17:28;;;;;;;20.63;4.10;;;;;;;8.27;100.00;99039.50;7396910;19;20439;-39
2023/03/31 02:20:01;;;;;;;21.60;5.07;;;;;;;8.30;100.00;99040.44;7398543;19;20439;-40
2023/03/31 02:22:33;;;;;;;25.63;4.90;;;;;;;8.31;100.00;99041.31;7398576;19;20431;-42
2023/03/31 02:25:03;;;;;;;30.93;5.20;;;;;;;8.35;100.00;99037.97;7398498;19;20956;-40
2023/03/31 02:27:37;;;;;;;25.73;4.17;;;;;;;8.34;100.00;99026.84;7396731;19;20442;-42
2023/03/31 02:30:08;;;;;;;20.97;4.40;;;;;;;8.34;100.00;99031.09;7398965;19;20463;-40
2023/03/31 02:32:39;;;;;;;23.90;4.80;;;;;;;8.38;100.00;99032.91;7397629;19;20439;-42
2023/03/31 02:35:11;;;;;;;22.13;4.30;;;;;;;8.33;100.00;99030.25;7397481;19;20412;-42
2023/03/31 02:37:42;;;;;;;24.80;5.87;;;;;;;8.33;100.00;99029.34;7397684;19;20459;-42
2023/03/31 02:40:14;;;;;;;21.90;5.03;;;;;;;8.31;100.00;99026.75;7400989;19;20968;-40
2023/03/31 02:42:46;;;;;;;19.80;5.37;;;;;;;8.27;100.00;99024.06;7397278;19;20451;-40
2023/03/31 02:45:41;;;;;;;27.60;4.27;;;;;;;8.30;100.00;99019.03;7398747;19;20431;-42
2023/03/31 02:48:13;;;;;;;24.00;5.20;;;;;;;8.24;100.00;99018.03;7395896;19;20577;-41
2023/03/31 02:51:09;;;;;;;16.53;4.50;;;;;;;8.22;100.00;99014.56;7397694;19;20396;-39
2023/03/31 02:53:49;;;;;;;26.93;5.20;;;;;;;8.19;100.00;99004.22;7399833;19;20460;-39
2023/03/31 02:56:33;;;;;;;22.70;4.90;;;;;;;8.19;100.00;99001.66;7397450;19;20408;-43
2023/03/31 02:59:15;;;;;;;26.27;5.70;;;;;;;8.19;100.00;99009.34;7397935;19;20458;-41
2023/03/31 03:02:00;;;;;;;20.00;5.27;;;;;;;8.20;100.00;99000.81;7395248;19;20431;-39
2023/03/31 03:04:40;;;;;;;22.97;5.10;;;;;;;8.18;100.00;98999.91;7397955;19;20440;-40
2023/03/31 03:07:14;;;;;;;22.20;5.10;;;;;;;8.17;100.00;98995.63;7393472;19;20427;-39
2023/03/31 03:09:48;;;;;;;16.87;4.53;;;;;;;8.15;100.00;98993.84;7397861;19;20451;-41
2023/03/31 03:12:21;;;;;;;18.50;4.97;;;;;;;8.15;100.00;98999.81;7396880;19;20446;-39
2023/03/31 03:14:57;;;;;;;19.90;4.80;;;;;;;8.11;100.00;98998.88;7397159;19;20416;-39
2023/03/31 03:17:28;;;;;;;16.40;5.07;;;;;;;8.15;100.00;99002.41;7395360;19;20439;-41
2023/03/31 03:19:59;;;;;;;23.87;5.47;;;;;;;8.14;100.00;98998.09;7396523;19;20453;-41
2023/03/31 03:22:29;;;;;;;34.77;5.83;;;;;;;8.20;100.00;98997.41;7394937;19;20443;-41
2023/03/31 03:24:58;;;;;;;18.67;5.00;;;;;;;8.17;100.00;98992.16;7396379;19;20412;-41
2023/03/31 03:27:28;;;;;;;9.63;4.57;;;;;;;8.11;100.00;98993.75;7394768;19;20454;-40
2023/03/31 03:30:01;;;;;;;14.27;5.27;;;;;;;8.13;100.00;98982.63;7397152;19;20447;-39
2023/03/31 03:32:32;;;;;;;29.10;7.70;;;;;;;8.13;100.00;98988.66;7396023;19;20458;-40
2023/03/31 03:35:02;;;;;;;24.30;5.70;;;;;;;8.09;100.00;98985.16;7397874;19;20419;-40
2023/03/31 03:37:32;;;;;;;21.70;5.90;;;;;;;8.08;100.00;98982.53;7393100;19;20454;-40
2023/03/31 03:40:04;;;;;;;17.00;5.20;;;;;;;8.14;100.00;98977.53;7395139;19;20455;-39
2023/03/31 03:42:34;;;;;;;21.87;5.63;;;;;;;8.13;100.00;98980.06;7396058;19;21038;-44
2023/03/31 03:45:07;;;;;;;17.60;5.57;;;;;;;8.10;100.00;98975.72;7396084;19;20403;-40
2023/03/31 03:47:37;;;;;;;20.90;6.00;;;;;;;8.08;100.00;98974.84;7395127;19;20435;-38
2023/03/31 03:50:08;;;;;;;15.40;5.40;;;;;;;8.04;100.00;98975.59;7395634;19;20447;-40
2023/03/31 03:52:38;;;;;;;19.73;7.23;;;;;;;8.02;100.00;98983.28;7389077;19;20419;-40
2023/03/31 03:55:08;;;;;;;18.17;6.00;;;;;;;8.03;100.00;98979.88;7394643;19;20975;-39
2023/03/31 03:57:38;;;;;;;27.57;6.57;;;;;;;8.02;100.00;98979.81;7395465;19;20457;-40
2023/03/31 04:00:12;;;;;;;18.63;5.80;;;;;;;8.01;100.00;98978.97;7395046;19;20439;-39
2023/03/31 04:02:41;;;;;;;18.00;5.63;;;;;;;8.00;100.00;98973.78;7393837;19;20963;-41
2023/03/31 04:05:11;;;;;;;23.97;7.53;;;;;;;8.04;100.00;98975.59;7394588;19;20874;-41
2023/03/31 04:07:41;;;;;;;27.70;6.70;;;;;;;8.08;100.00;98972.25;7393111;19;20822;-39
2023/03/31 04:10:11;;;;;;;21.83;7.17;;;;;;;8.10;100.00;98980.88;7395143;19;20404;-42
2023/03/31 04:12:41;;;;;;;18.47;5.90;;;;;;;8.06;100.00;98973.94;7393825;19;20471;-39
2023/03/31 04:15:13;;;;;;;15.27;5.27;;;;;;;8.05;100.00;98957.66;7395075;19;20443;-41
2023/03/31 04:17:49;;;;;;;30.33;9.83;;;;;;;8.06;100.00;98963.66;7393303;19;20447;-38
2023/03/31 04:20:19;;;;;;;21.60;6.17;;;;;;;8.07;100.00;98967.97;7391865;19;21046;-39
2023/03/31 04:22:49;;;;;;;14.40;5.43;;;;;;;8.07;100.00;98955.13;7391193;19;20426;-38
2023/03/31 04:25:21;;;;;;;17.47;6.20;;;;;;;8.05;100.00;98961.94;7391154;19;20416;-40
2023/03/31 04:27:53;;;;;;;17.83;5.50;;;;;;;8.09;100.00;98954.31;7390233;19;20431;-39
2023/03/31 04:30:29;;;;;;;24.83;6.30;;;;;;;8.13;100.00;98946.69;7393714;19;20407;-39
2023/03/31 04:33:01;;;;;;;23.10;6.47;;;;;;;8.11;100.00;98942.38;7390266;19;20436;-44
2023/03/31 04:35:48;;;;;;;16.80;5.87;;;;;;;8.07;100.00;98935.47;7389873;19;20401;-39
2023/03/31 04:38:19;;;;;;;16.10;6.70;;;;;;;8.17;100.00;98936.53;7389840;19;20455;-39
2023/03/31 04:40:50;;;;;;;19.80;6.70;;;;;;;8.13;100.00;98934.72;7391493;19;20416;-39
2023/03/31 04:43:21;;;;;;;20.53;6.27;;;;;;;8.14;100.00;98931.31;7392545;19;20446;-38
2023/03/31 04:45:53;;;;;;;15.27;6.23;;;;;;;8.09;100.00;98928.63;7391015;19;20388;-39
2023/03/31 04:48:22;;;;;;;20.53;7.00;;;;;;;8.09;100.00;98922.63;7386407;19;20439;-41
2023/03/31 04:50:52;;;;;;;17.07;6.73;;;;;;;8.09;100.00;98922.63;7391536;19;20391;-39
2023/03/31 04:53:22;;;;;;;23.07;7.73;;;;;;;8.13;100.00;98914.16;7390894;19;20412;-38
2023/03/31 04:55:51;;;;;;;25.53;7.20;;;;;;;8.09;100.00;98913.22;7390131;19;20395;-39
2023/03/31 04:58:21;;;;;;;21.10;7.10;;;;;;;8.16;100.00;98914.22;7387298;19;20771;-39
2023/03/31 05:00:54;;;;;;;17.67;6.80;;;;;;;8.11;100.00;98908.97;7387835;19;20734;-42
2023/03/31 05:03:23;;;;;;;21.43;8.30;;;;;;;8.20;100.00;98905.75;7365474;19;20423;-40
2023/03/31 05:05:53;;;;;;;24.53;8.53;;;;;;;8.20;100.00;98899.75;7387697;19;20424;-40
2023/03/31 05:08:23;;;;;;;17.07;7.43;;;;;;;8.15;100.00;98897.06;7387382;19;20419;-40
2023/03/31 05:10:52;;;;;;;21.87;7.60;;;;;;;8.17;100.00;98889.41;7388346;19;20384;-40
2023/03/31 05:13:22;;;;;;;23.53;6.70;;;;;;;8.18;100.00;98884.31;7387289;19;20439;-42
2023/03/31 05:15:54;;;;;;;22.17;8.10;;;;;;;8.18;100.00;98884.31;7387202;19;20399;-40
2023/03/31 05:18:24;;;;;;;19.33;7.93;;;;;;;8.20;100.00;98877.50;7387071;19;20422;-39
2023/03/31 05:20:53;;;;;;;22.33;8.80;;;;;;;8.19;100.00;98869.75;7391472;19;20923;-41
2023/03/31 05:23:23;;;;;;;28.20;8.80;;;;;;;8.21;100.00;98879.22;7385820;19;20419;-39
2023/03/31 05:25:52;;;;;;;26.40;8.77;;;;;;;8.23;100.00;98877.56;7385677;19;20935;-44
2023/03/31 05:28:22;;;;;;;20.37;8.83;;;;;;;8.19;100.00;98872.31;7387681;19;20479;-42
2023/03/31 05:30:54;;;;;;;22.33;7.60;;;;;;;8.21;100.00;98865.53;7387398;19;20408;-41
2023/03/31 05:33:24;;;;;;;18.30;9.13;;;;;;;8.27;100.00;98868.22;7387712;19;21036;-41
2023/03/31 05:35:53;;;;;;;25.33;10.27;;;;;;;8.24;100.00;98863.00;7386549;19;20769;-40
2023/03/31 05:38:23;;;;;;;28.80;8.57;;;;;;;8.23;100.00;98859.59;7386061;19;20526;-40
2023/03/31 05:40:53;;;;;;;28.40;9.80;;;;;;;8.17;100.00;98854.31;7388757;19;20424;-39
2023/03/31 05:43:22;;;;;;;29.70;10.53;;;;;;;8.21;100.00;98852.69;7386824;19;20423;-40
2023/03/31 05:45:54;;;;;;;31.73;12.70;;;;;;;8.28;100.00;98851.09;7387280;19;20425;-39
2023/03/31 05:48:24;;;;;;;22.27;9.10;;;;;;;8.30;100.00;98849.44;7389045;19;20429;-39
2023/03/31 05:50:53;;;;;;;19.90;8.70;;;;;;;8.29;100.00;98851.13;7394552;19;20412;-40
2023/03/31 05:53:23;;;;;;;24.10;9.47;;;;;;;8.29;100.00;98852.81;7388500;19;20802;-39
2023/03/31 05:55:58;;;;;;;21.97;8.33;;;;;;;8.26;100.00;98852.75;7393003;19;20392;-39
2023/03/31 05:58:28;;;;;;;31.93;9.73;;;;;;;8.22;100.00;98850.13;7253124;19;2737303;-39
2023/03/31 06:01:09;;;;;;;24.83;9.60;;;;;;;8.22;100.00;98846.69;7396244;19;20128;-40
2023/03/31 06:03:42;;;;;;;26.00;8.53;;;;;;;8.23;100.00;98846.75;7397535;19;20958;-39
2023/03/31 06:06:13;;;;;;;26.10;8.57;;;;;;;8.22;100.00;98842.41;7395492;19;20391;-40
2023/03/31 06:08:44;;;;;;;24.27;8.30;;;;;;;8.26;100.00;98845.94;7397758;19;20836;-41
2023/03/31 06:11:15;;;;;;;22.23;7.50;;;;;;;8.27;100.00;98833.94;7394490;19;20408;-40
2023/03/31 06:13:45;;;;;;;24.30;7.50;;;;;;;8.30;100.00;98836.59;7394900;19;20919;-41
2023/03/31 06:16:18;;;;;;;18.57;8.27;;;;;;;8.29;100.00;98842.53;7392624;19;20403;-39
2023/03/31 06:18:50;;;;;;;27.40;8.43;;;;;;;8.39;100.00;98841.91;7395126;19;20418;-39
2023/03/31 06:21:20;;;;;;;25.13;8.53;;;;;;;8.36;100.00;98847.84;7392959;19;20392;-39
2023/03/31 06:23:53;;;;;;;23.23;8.03;;;;;;;8.34;100.00;98843.50;7394845;19;20402;-41
2023/03/31 06:26:23;;;;;;;19.67;7.77;;;;;;;8.37;100.00;98847.00;7392461;19;20404;-38
2023/03/31 06:28:53;;;;;;;21.60;8.13;;;;;;;8.38;100.00;98847.88;7394743;19;20427;-39
2023/03/31 06:31:26;;;;;;;21.43;8.70;;;;;;;8.44;100.00;98857.41;7393670;19;20975;-40
2023/03/31 06:33:56;;;;;;;19.40;7.47;;;;;;;8.38;100.00;98859.00;7395010;19;20400;-40
2023/03/31 06:36:26;;;;;;;18.13;6.73;;;;;;;8.44;100.00;98863.41;7391563;19;20402;-38
2023/03/31 06:38:55;;;;;;;20.77;7.37;;;;;;;8.39;100.00;98870.16;7394318;19;20467;-40
2023/03/31 06:41:25;;;;;;;27.97;10.60;;;;;;;8.43;100.00;98876.22;7392853;19;20414;-39
2023/03/31 06:43:55;;;;;;;27.23;8.00;;;;;;;8.42;100.00;98885.66;7396760;19;20748;-39
2023/03/31 06:46:27;;;;;;;21.70;7.97;;;;;;;8.41;100.00;98904.47;7390036;19;20391;-39
2023/03/31 06:48:57;;;;;;;26.17;8.83;;;;;;;8.59;100.00;98923.72;7396049;19;20839;-39
2023/03/31 06:51:26;;;;;;;21.17;7.33;;;;;;;8.46;100.00;98933.72;7388056;19;20415;-42
2023/03/31 06:53:57;;;;;;;19.93;7.63;;;;;;;8.49;100.00;98949.22;7396819;19;20391;-42
2023/03/31 06:56:27;;;;;;;21.70;8.50;;;;;;;8.57;100.00;98984.53;7390954;19;20434;-39
2023/03/31 06:58:57;;;;;;;21.97;8.10;;;;;;;8.63;100.00;99002.66;7394254;19;20464;-42
2023/03/31 07:01:30;;;;;;;23.93;7.83;;;;;;;8.62;100.00;99017.19;7392207;19;20418;-41
2023/03/31 07:04:00;;;;;;;19.80;6.87;;;;;;;8.60;100.00;99041.13;7394554;19;20409;-40
2023/03/31 07:06:29;;;;;;;21.60;8.17;;;;;;;8.60;100.00;99069.41;7393719;19;20739;-41
2023/03/31 07:08:59;;;;;;;20.53;7.23;;;;;;;8.68;100.00;99113.28;7393784;19;20455;-41
2023/03/31 07:11:29;;;;;;;21.83;7.23;;;;;;;8.65;100.00;99160.38;7392092;19;20439;-40
2023/03/31 07:13:58;;;;;;;16.77;7.00;;;;;;;8.65;100.00;99227.22;7393523;19;20392;-39
2023/03/31 07:16:30;;;;;;;22.60;7.77;;;;;;;8.77;100.00;99283.25;7392241;19;20456;-40
2023/03/31 07:19:02;;;;;;;20.13;7.53;;;;;;;8.75;100.00;99316.63;7394694;19;20493;-39
2023/03/31 07:21:31;;;;;;;22.10;7.20;;;;;;;8.83;100.00;99341.69;7391010;19;20422;-39
2023/03/31 07:24:01;;;;;;;16.47;7.07;;;;;;;8.78;100.00;99346.72;7393789;19;20749;-43
2023/03/31 07:26:31;;;;;;;19.73;7.23;;;;;;;8.78;100.00;99355.28;7391030;19;20422;-42
2023/03/31 07:29:01;;;;;;;19.43;7.67;;;;;;;8.77;100.00;99360.41;7393598;19;20423;-39
2023/03/31 07:31:33;;;;;;;19.30;7.47;;;;;;;8.90;100.00;99371.88;7393028;19;20399;-40
2023/03/31 07:34:06;;;;;;;17.60;6.20;;;;;;;8.90;100.00;99379.59;7393309;19;20396;-38
2023/03/31 07:36:35;;;;;;;23.30;7.47;;;;;;;8.85;100.00;99386.31;7391412;19;20419;-39
2023/03/31 07:39:06;;;;;;;15.90;6.93;;;;;;;8.92;100.00;99398.50;7393539;19;20443;-38
2023/03/31 07:41:36;;;;;;;18.53;7.20;;;;;;;8.91;100.00;99399.31;7391411;19;20411;-39
2023/03/31 07:44:06;;;;;;;12.53;6.40;;;;;;;8.92;100.00;99408.78;7392930;19;20388;-39
2023/03/31 07:46:38;;;;;;;26.03;7.47;;;;;;;8.93;100.00;99410.56;7391735;19;20388;-39
2023/03/31 07:49:09;;;;;;;18.67;7.30;;;;;;;8.98;100.00;99410.66;7395591;19;20467;-40
2023/03/31 07:51:38;;;;;;;19.40;6.60;;;;;;;8.91;100.00;99409.63;7392340;19;20416;-38
2023/03/31 07:54:08;;;;;;;19.20;7.23;;;;;;;9.00;100.00;99404.72;7397018;19;20407;-39
2023/03/31 07:56:38;;;;;;;21.90;7.40;;;;;;;8.96;100.00;99418.34;7389741;19;20403;-39
2023/03/31 07:59:07;;;;;;;17.20;8.00;;;;;;;8.98;100.00;99406.38;7392739;19;20919;-40
2023/03/31 08:01:39;;;;;;;16.97;8.50;;;;;;;9.00;100.00;99412.44;7391086;19;20407;-39
2023/03/31 08:04:11;;;;;;;18.77;8.30;;;;;;;9.12;100.00;99409.31;7393829;19;20388;-39
2023/03/31 08:06:40;;;;;;;18.93;7.43;;;;;;;9.11;100.00;99411.84;7391625;19;20411;-41
2023/03/31 08:09:10;;;;;;;17.30;7.33;;;;;;;9.05;100.00;99413.44;7396049;19;20574;-41
2023/03/31 08:11:40;;;;;;;16.93;7.10;;;;;;;9.04;100.00;99405.69;7392918;19;20411;-40
2023/03/31 08:14:10;;;;;;;17.07;6.50;;;;;;;9.04;100.00;99409.09;7392819;19;20767;-43
2023/03/31 08:16:42;;;;;;;18.53;6.60;;;;;;;9.03;100.00;99399.66;7391816;19;21112;-39
2023/03/31 08:19:12;;;;;;;18.83;6.97;;;;;;;9.00;100.00;99397.00;7393601;19;20967;-40
2023/03/31 08:21:41;;;;;;;15.33;6.47;;;;;;;9.08;100.00;99396.34;7390445;19;20419;-40
2023/03/31 08:24:11;;;;;;;11.37;5.90;;;;;;;9.00;100.00;99394.44;7393815;19;20392;-43
2023/03/31 08:26:40;;;;;;;8.70;4.70;;;;;;;8.90;100.00;99387.31;7385946;19;20395;-42
2023/03/31 08:29:10;;;;;;;11.67;5.27;;;;;;;8.89;100.00;99390.72;7392135;19;20463;-39
2023/03/31 08:31:42;;;;;;;16.40;5.43;;;;;;;8.90;100.00;99387.31;7390094;19;20399;-42
2023/03/31 08:34:13;;;;;;;11.67;7.50;;;;;;;8.88;100.00;99381.25;7393620;19;20380;-44
2023/03/31 08:36:42;;;;;;;7.20;4.50;;;;;;;8.86;100.00;99376.06;7390776;19;20443;-41
2023/03/31 08:39:12;;;;;;;15.50;6.13;;;;;;;8.76;100.00;99374.06;7390902;19;20954;-47
2023/03/31 08:41:52;;;;;;;11.83;5.30;;;;;;;8.74;100.00;99371.47;7386560;19;20407;-42
2023/03/31 08:44:25;;;;;;;7.83;4.90;;;;;;;8.72;100.00;99352.53;7392292;19;20415;-43
2023/03/31 08:46:59;;;;;;;16.03;5.27;;;;;;;8.72;100.00;99347.41;7390758;19;20427;-43
2023/03/31 08:49:30;;;;;;;9.27;5.20;;;;;;;8.69;100.00;99319.03;7391332;19;20455;-40
2023/03/31 08:52:02;;;;;;;17.37;5.90;;;;;;;8.68;100.00;99319.88;7388709;19;20789;-42
2023/03/31 08:54:34;;;;;;;12.47;6.20;;;;;;;8.77;100.00;99296.97;7390530;19;20759;-39
2023/03/31 08:57:07;;;;;;;13.60;7.00;;;;;;;8.92;100.00;99285.31;7389669;19;20446;-39
2023/03/31 08:59:39;;;;;;;16.80;6.73;;;;;;;8.96;100.00;99270.84;7391436;19;20427;-39
2023/03/31 09:02:19;;;;;;;13.70;7.23;;;;;;;8.90;100.00;99253.53;7389622;19;20630;-41
2023/03/31 09:05:10;;;;;;;13.80;6.30;;;;;;;8.91;100.00;99234.69;7390940;19;20598;-39
2023/03/31 09:07:48;;;;;;;16.00;7.80;;;;;;;8.98;100.00;99235.72;7388750;19;20403;-41
2023/03/31 09:10:30;;;;;;;14.93;6.87;;;;;;;9.04;100.00;99223.88;7390831;19;20415;-41
2023/03/31 09:13:04;;;;;;;14.40;7.60;;;;;;;9.19;100.00;99215.63;7391452;19;20451;-42
2023/03/31 09:15:37;;;;;;;12.00;6.60;;;;;;;9.05;100.00;99197.34;7391994;19;21040;-44
2023/03/31 09:18:17;;;;;;;16.00;7.90;;;;;;;8.95;100.00;99194.47;7388711;19;20760;-41
2023/03/31 09:20:50;;;;;;;16.10;5.93;;;;;;;8.90;100.00;99181.53;7390660;19;20766;-39
2023/03/31 09:23:26;;;;;;;16.60;6.70;;;;;;;8.96;100.00;99176.53;7388174;19;20433;-39
2023/03/31 09:25:56;;;;;;;12.60;6.30;;;;;;;9.07;100.00;99178.47;7389941;19;20502;-40
2023/03/31 09:28:31;;;;;;;15.03;6.73;;;;;;;8.95;100.00;99163.63;7389235;19;20475;-42
2023/03/31 09:31:02;;;;;;;16.43;6.03;;;;;;;8.84;100.00;99181.38;7395379;19;20946;-41
2023/03/31 09:33:34;;;;;;;22.60;8.10;;;;;;;8.98;100.00;99177.41;7394062;19;20451;-41
2023/03/31 09:36:04;;;;;;;19.67;7.50;;;;;;;8.89;100.00;99170.38;7394345;19;20729;-44
2023/03/31 09:38:34;;;;;;;19.37;8.53;;;;;;;9.09;100.00;99166.50;7393093;19;20526;-39
2023/03/31 09:41:05;;;;;;;16.40;7.40;;;;;;;9.19;100.00;99159.03;7388655;19;20419;-40
2023/03/31 09:43:37;;;;;;;9.40;5.37;;;;;;;9.04;100.00;99156.13;7392793;19;20453;-39
2023/03/31 09:46:17;;;;;;;11.60;5.90;;;;;;;8.91;100.00;99144.69;7391323;19;20512;-38
2023/03/31 09:48:57;;;;;;;12.80;6.10;;;;;;;9.03;100.00;99151.81;7394919;19;20439;-39
2023/03/31 09:51:29;;;;;;;48.27;16.23;;;;;;;9.29;100.00;99149.78;7391552;19;20439;-40
2023/03/31 09:54:04;;;;;;;16.17;7.20;;;;;;;9.31;100.00;99142.09;7393614;19;20411;-42
2023/03/31 09:56:37;;;;;;;14.03;6.13;;;;;;;9.23;100.00;99144.50;7390716;19;20455;-41
2023/03/31 09:59:07;;;;;;;9.83;5.43;;;;;;;9.28;100.00;99142.91;7392729;19;20807;-40
2023/03/31 10:01:37;;;;;;;18.20;7.20;;;;;;;9.28;100.00;99127.47;7390202;19;20426;-46
2023/03/31 10:04:11;;;;;;;9.10;4.70;;;;;;;9.31;100.00;99130.13;7392094;19;20411;-39
2023/03/31 10:06:44;;;;;;;11.53;4.73;;;;;;;9.36;100.00;99137.06;7388628;19;20447;-38
2023/03/31 10:09:15;;;;;;;21.40;5.90;;;;;;;9.35;100.00;99127.59;7393497;19;20475;-41
2023/03/31 10:11:59;;;;;;;10.93;4.80;;;;;;;9.53;100.00;99133.13;7386871;19;20802;-42
2023/03/31 10:14:36;;;;;;;17.23;4.80;;;;;;;9.70;100.00;99140.31;7391982;19;20951;-40
2023/03/31 10:17:07;;;;;;;13.30;6.10;;;;;;;9.71;100.00;99139.47;7389004;19;20439;-39
2023/03/31 10:19:40;;;;;;;32.57;9.60;;;;;;;9.74;100.00;99142.09;7391636;19;20836;-42
2023/03/31 10:22:17;;;;;;;10.17;4.73;;;;;;;9.39;100.00;99134.56;7387892;19;20467;-41
2023/03/31 10:24:48;;;;;;;10.83;5.73;;;;;;;9.44;100.00;99141.53;7391945;19;20797;-40
2023/03/31 10:27:23;;;;;;;51.47;14.80;;;;;;;9.56;100.00;99152.91;7388464;19;20435;-40
2023/03/31 10:29:54;;;;;;;18.37;6.90;;;;;;;9.59;100.00;99138.41;7392418;19;20460;-40
2023/03/31 10:32:27;;;;;;;16.43;6.57;;;;;;;9.80;100.00;99151.66;7390081;19;20451;-41
2023/03/31 10:35:05;;;;;;;18.60;8.40;;;;;;;9.83;100.00;99147.44;7396708;19;20410;-40
2023/03/31 10:37:37;;;;;;;14.50;7.00;;;;;;;9.83;100.00;99144.88;7395574;19;20438;-39
2023/03/31 10:40:15;;;;;;;13.53;7.70;;;;;;;9.62;100.00;99147.88;7397214;19;20435;-40
2023/03/31 10:42:47;;;;;;;18.80;7.60;;;;;;;9.82;100.00;99156.00;7397029;19;20970;-40
2023/03/31 10:45:27;;;;;;;13.93;7.17;;;;;;;9.88;100.00;99162.13;7397213;19;20411;-43
2023/03/31 10:48:07;;;;;;;23.30;10.20;;;;;;;10.00;100.00;99164.91;7395707;19;20446;-40
2023/03/31 10:50:41;;;;;;;18.60;7.63;;;;;;;10.08;100.00;99147.91;7397999;19;20407;-40
2023/03/31 10:53:14;;;;;;;20.63;9.53;;;;;;;9.99;100.00;99139.97;7395299;19;20899;-40
2023/03/31 10:55:51;;;;;;;28.47;10.90;;;;;;;9.87;100.00;99127.75;7399880;19;20426;-40
2023/03/31 10:58:28;;;;;;;12.97;6.80;;;;;;;9.90;100.00;99132.09;7394486;19;20599;-39
2023/03/31 11:01:06;;;;;;;15.03;7.63;;;;;;;10.00;100.00;99141.72;7398315;19;20422;-41
2023/03/31 11:04:02;;;;;;;18.50;7.60;;;;;;;9.99;100.00;99142.56;7399756;19;20446;-42
2023/03/31 11:06:45;;;;;;;14.47;8.00;;;;;;;10.08;100.00;99142.75;7396087;19;20418;-45
2023/03/31 11:09:28;;;;;;;13.93;7.10;;;;;;;10.15;100.00;99142.84;7395855;19;20995;-42
2023/03/31 11:12:05;;;;;;;14.90;6.10;;;;;;;10.40;100.00;99147.59;7396062;19;20419;-47
2023/03/31 11:14:43;;;;;;;10.40;6.20;;;;;;;10.31;100.00;99144.84;7397563;19;20471;-39
2023/03/31 11:17:21;;;;;;;8.80;5.00;;;;;;;10.26;100.00;99142.19;7395701;19;20451;-41
2023/03/31 11:19:57;;;;;;;10.63;4.60;;;;;;;10.18;100.00;99142.88;7398412;19;20445;-42
2023/03/31 11:22:33;;;;;;;10.10;4.77;;;;;;;10.21;100.00;99142.97;7394629;19;20447;-43
2023/03/31 11:25:11;;;;;;;12.43;5.10;;;;;;;10.28;100.00;99165.41;7397761;19;20958;-42
2023/03/31 11:27:53;;;;;;;12.33;4.33;;;;;;;10.10;100.00;99161.66;7394563;19;20435;-41
2023/03/31 11:30:26;;;;;;;5.47;4.17;;;;;;;10.02;100.00;99168.41;7396916;19;20408;-40
2023/03/31 11:33:06;;;;;;;6.20;3.50;;;;;;;9.86;100.00;99174.97;7396055;19;21287;-42
2023/03/31 11:36:03;;;;;;;8.80;3.70;;;;;;;9.78;100.00;99173.94;7399680;19;20407;-40
2023/03/31 11:38:43;;;;;;;8.77;4.47;;;;;;;10.07;100.00;99184.81;7397813;19;20895;-40
2023/03/31 11:41:15;;;;;;;9.50;3.60;;;;;;;10.13;100.00;99177.19;7393187;19;20923;-40
2023/03/31 11:43:47;;;;;;;28.13;16.13;;;;;;;10.44;100.00;99178.59;7396128;19;20408;-39
2023/03/31 11:46:20;;;;;;;17.10;10.30;;;;;;;10.54;100.00;99159.88;7395278;19;20451;-42
2023/03/31 11:48:56;;;;;;;43.43;24.60;;;;;;;10.97;100.00;99148.47;7396776;19;20439;-38
2023/03/31 11:51:28;;;;;;;52.07;28.87;;;;;;;11.10;100.00;99139.19;7392519;19;20411;-41